sensor_id;sensor_type;location;lat;lon;timestamp;temperature;humidity
19397;DHT22;9834;48.076;11.878;2024-03-02T04:03:20;5.30;99.90
19397;DHT22;9834;48.076;11.878;2024-03-02T04:05:50;5.30;99.90
19397;DHT22;9834;48.076;11.878;2024-03-02T04:08:24;5.30;99.90
19397;DHT22;9834;48.076;11.878;2024-03-02T04:10:52;5.30;99.90
19397;DHT22;9834;48.076;11.878;2024-03-02T04:13:20;5.30;99.90
19397;DHT22;9834;48.076;11.878;2024-03-02T04:15:48;5.40;99.90
19397;DHT22;9834;48.076;11.878;2024-03-02T04:18:26;5.30;99.90
19397;DHT22;9834;48.076;11.878;2024-03-02T04:20:54;5.30;99.90
19397;DHT22;9834;48.076;11.878;2024-03-02T04:23:21;5.20;99.90
19397;DHT22;9834;48.076;11.878;2024-03-02T04:25:52;5.20;99.90
19397;DHT22;9834;48.076;11.878;2024-03-02T04:28:33;5.20;99.90
19397;DHT22;9834;48.076;11.878;2024-03-02T04:31:01;5.20;99.90
19397;DHT22;9834;48.076;11.878;2024-03-02T04:33:32;5.20;99.90
19397;DHT22;9834;48.076;11.878;2024-03-02T04:36:00;5.30;99.90
19397;DHT22;9834;48.076;11.878;2024-03-02T04:38:41;5.30;99.90
19397;DHT22;9834;48.076;11.878;2024-03-02T04:41:10;5.30;99.90
19397;DHT22;9834;48.076;11.878;2024-03-02T04:43:54;5.30;99.90
19397;DHT22;9834;48.076;11.878;2024-03-02T04:46:27;5.30;99.90
19397;DHT22;9834;48.076;11.878;2024-03-02T04:48:56;6.50;99.90
19397;DHT22;9834;48.076;11.878;2024-03-02T04:51:31;5.60;99.90
19397;DHT22;9834;48.076;11.878;2024-03-02T04:54:00;5.30;99.90
19397;DHT22;9834;48.076;11.878;2024-03-02T04:56:36;5.30;99.90
19397;DHT22;9834;48.076;11.878;2024-03-02T04:59:18;5.40;99.90
19397;DHT22;9834;48.076;11.878;2024-03-02T05:01:45;5.30;99.90
19397;DHT22;9834;48.076;11.878;2024-03-02T05:04:27;5.30;99.90
19397;DHT22;9834;48.076;11.878;2024-03-02T05:06:57;5.30;99.90
19397;DHT22;9834;48.076;11.878;2024-03-02T05:09:28;5.30;99.90
19397;DHT22;9834;48.076;11.878;2024-03-02T05:11:56;5.30;99.90
19397;DHT22;9834;48.076;11.878;2024-03-02T05:14:41;5.20;99.90
19397;DHT22;9834;48.076;11.878;2024-03-02T05:17:08;5.30;99.90
19397;DHT22;9834;48.076;11.878;2024-03-02T05:19:37;5.30;99.90
19397;DHT22;9834;48.076;11.878;2024-03-02T05:22:05;5.30;99.90
19397;DHT22;9834;48.076;11.878;2024-03-02T05:24:32;5.30;99.90
19397;DHT22;9834;48.076;11.878;2024-03-02T05:27:00;5.20;99.90
19397;DHT22;9834;48.076;11.878;2024-03-02T05:29:33;5.10;99.90
19397;DHT22;9834;48.076;11.878;2024-03-02T05:32:08;5.20;99.90
19397;DHT22;9834;48.076;11.878;2024-03-02T05:34:37;5.20;99.90
19397;DHT22;9834;48.076;11.878;2024-03-02T05:37:04;5.20;99.90
19397;DHT22;9834;48.076;11.878;2024-03-02T05:39:33;5.10;99.90
19397;DHT22;9834;48.076;11.878;2024-03-02T05:42:09;5.10;99.90
19397;DHT22;9834;48.076;11.878;2024-03-02T05:44:39;5.20;99.90
19397;DHT22;9834;48.076;11.878;2024-03-02T05:47:09;5.20;99.90
19397;DHT22;9834;48.076;11.878;2024-03-02T05:49:38;5.20;99.90
19397;DHT22;9834;48.076;11.878;2024-03-02T05:52:11;5.30;99.90
19397;DHT22;9834;48.076;11.878;2024-03-02T05:54:41;5.30;99.90
19397;DHT22;9834;48.076;11.878;2024-03-02T05:57:09;5.30;99.90
19397;DHT22;9834;48.076;11.878;2024-03-02T06:00:00;5.30;99.90
19397;DHT22;9834;48.076;11.878;2024-03-02T06:02:34;5.30;99.90
19397;DHT22;9834;48.076;11.878;2024-03-02T06:05:03;5.30;99.90
19397;DHT22;9834;48.076;11.878;2024-03-02T06:07:33;5.20;99.90
19397;DHT22;9834;48.076;11.878;2024-03-02T06:10:01;5.30;99.90
19397;DHT22;9834;48.076;11.878;2024-03-02T06:12:27;5.30;99.90
19397;DHT22;9834;48.076;11.878;2024-03-02T06:14:55;5.20;99.90
19397;DHT22;9834;48.076;11.878;2024-03-02T06:17:22;5.30;99.90
19397;DHT22;9834;48.076;11.878;2024-03-02T06:19:49;5.40;99.90
19397;DHT22;9834;48.076;11.878;2024-03-02T06:22:18;5.40;99.90
19397;DHT22;9834;48.076;11.878;2024-03-02T06:24:47;5.40;99.90
19397;DHT22;9834;48.076;11.878;2024-03-02T06:27:18;5.50;99.90
19397;DHT22;9834;48.076;11.878;2024-03-02T06:29:51;5.60;99.90
19397;DHT22;9834;48.076;11.878;2024-03-02T06:32:24;5.60;99.90
19397;DHT22;9834;48.076;11.878;2024-03-02T06:34:54;5.60;99.90
19397;DHT22;9834;48.076;11.878;2024-03-02T06:37:23;5.70;99.90
19397;DHT22;9834;48.076;11.878;2024-03-02T06:40:00;5.70;99.90
19397;DHT22;9834;48.076;11.878;2024-03-02T06:42:33;5.70;99.90
19397;DHT22;9834;48.076;11.878;2024-03-02T06:45:04;5.70;99.90
19397;DHT22;9834;48.076;11.878;2024-03-02T06:47:32;5.70;99.90
19397;DHT22;9834;48.076;11.878;2024-03-02T06:50:01;5.80;99.90
19397;DHT22;9834;48.076;11.878;2024-03-02T06:52:30;5.80;99.90
19397;DHT22;9834;48.076;11.878;2024-03-02T06:54:59;5.90;99.90
19397;DHT22;9834;48.076;11.878;2024-03-02T06:57:27;6.00;99.90
19397;DHT22;9834;48.076;11.878;2024-03-02T06:59:55;6.10;99.90
19397;DHT22;9834;48.076;11.878;2024-03-02T07:02:37;6.10;99.90
19397;DHT22;9834;48.076;11.878;2024-03-02T07:05:08;6.20;99.90
19397;DHT22;9834;48.076;11.878;2024-03-02T07:07:44;6.30;99.90
19397;DHT22;9834;48.076;11.878;2024-03-02T07:10:12;6.30;99.90
19397;DHT22;9834;48.076;11.878;2024-03-02T07:12:39;6.40;99.90
19397;DHT22;9834;48.076;11.878;2024-03-02T07:15:15;6.50;99.90
19397;DHT22;9834;48.076;11.878;2024-03-02T07:18:05;6.50;99.90
19397;DHT22;9834;48.076;11.878;2024-03-02T07:20:35;6.60;99.90
19397;DHT22;9834;48.076;11.878;2024-03-02T07:23:06;6.60;99.90
19397;DHT22;9834;48.076;11.878;2024-03-02T07:25:35;6.60;99.90
19397;DHT22;9834;48.076;11.878;2024-03-02T07:28:02;6.60;99.90
19397;DHT22;9834;48.076;11.878;2024-03-02T07:30:30;6.60;99.90
19397;DHT22;9834;48.076;11.878;2024-03-02T07:32:58;6.70;99.90
19397;DHT22;9834;48.076;11.878;2024-03-02T07:35:33;6.70;99.90
19397;DHT22;9834;48.076;11.878;2024-03-02T07:38:00;6.80;99.90
19397;DHT22;9834;48.076;11.878;2024-03-02T07:40:44;6.90;99.90
19397;DHT22;9834;48.076;11.878;2024-03-02T07:43:12;7.10;99.90
19397;DHT22;9834;48.076;11.878;2024-03-02T07:45:42;7.10;99.90
19397;DHT22;9834;48.076;11.878;2024-03-02T07:48:17;7.20;99.90
19397;DHT22;9834;48.076;11.878;2024-03-02T07:50:45;7.30;99.90
19397;DHT22;9834;48.076;11.878;2024-03-02T07:53:20;7.40;99.90
19397;DHT22;9834;48.076;11.878;2024-03-02T07:55:49;7.50;99.90
19397;DHT22;9834;48.076;11.878;2024-03-02T07:58:22;7.50;99.90
19397;DHT22;9834;48.076;11.878;2024-03-02T08:00:50;7.60;99.90
19397;DHT22;9834;48.076;11.878;2024-03-02T08:03:21;7.60;99.90
19397;DHT22;9834;48.076;11.878;2024-03-02T08:05:48;7.70;99.90
19397;DHT22;9834;48.076;11.878;2024-03-02T08:08:24;7.80;99.90
19397;DHT22;9834;48.076;11.878;2024-03-02T08:10:53;7.80;99.90
19397;DHT22;9834;48.076;11.878;2024-03-02T08:13:21;7.90;99.90
19397;DHT22;9834;48.076;11.878;2024-03-02T08:15:48;7.90;99.90
19397;DHT22;9834;48.076;11.878;2024-03-02T08:18:19;7.90;99.90
19397;DHT22;9834;48.076;11.878;2024-03-02T08:20:49;8.00;99.90
19397;DHT22;9834;48.076;11.878;2024-03-02T08:23:17;8.10;99.90
19397;DHT22;9834;48.076;11.878;2024-03-02T08:25:49;8.20;99.90
19397;DHT22;9834;48.076;11.878;2024-03-02T08:28:21;8.40;99.90
19397;DHT22;9834;48.076;11.878;2024-03-02T08:30:49;8.40;99.90
19397;DHT22;9834;48.076;11.878;2024-03-02T08:33:18;8.40;99.90
19397;DHT22;9834;48.076;11.878;2024-03-02T08:35:46;8.40;99.90
19397;DHT22;9834;48.076;11.878;2024-03-02T08:38:14;8.60;99.90
19397;DHT22;9834;48.076;11.878;2024-03-02T08:40:47;8.90;99.90
19397;DHT22;9834;48.076;11.878;2024-03-02T08:43:15;9.10;99.90
19397;DHT22;9834;48.076;11.878;2024-03-02T08:45:44;9.20;99.90
19397;DHT22;9834;48.076;11.878;2024-03-02T08:48:13;9.30;99.90
19397;DHT22;9834;48.076;11.878;2024-03-02T08:50:41;9.30;99.90
19397;DHT22;9834;48.076;11.878;2024-03-02T08:53:10;9.30;99.90
19397;DHT22;9834;48.076;11.878;2024-03-02T08:55:38;9.20;99.90
19397;DHT22;9834;48.076;11.878;2024-03-02T08:58:06;9.20;99.90
19397;DHT22;9834;48.076;11.878;2024-03-02T09:00:34;9.10;99.90
19397;DHT22;9834;48.076;11.878;2024-03-02T09:03:03;8.90;99.90
19397;DHT22;9834;48.076;11.878;2024-03-02T09:05:41;8.90;99.90
19397;DHT22;9834;48.076;11.878;2024-03-02T09:08:08;8.80;99.90
19397;DHT22;9834;48.076;11.878;2024-03-02T09:10:42;8.80;99.90
19397;DHT22;9834;48.076;11.878;2024-03-02T09:13:20;8.70;99.90
19397;DHT22;9834;48.076;11.878;2024-03-02T09:15:48;8.50;99.90
19397;DHT22;9834;48.076;11.878;2024-03-02T09:18:19;8.40;99.90
19397;DHT22;9834;48.076;11.878;2024-03-02T09:20:46;8.40;99.90
19397;DHT22;9834;48.076;11.878;2024-03-02T09:23:17;8.40;99.90
19397;DHT22;9834;48.076;11.878;2024-03-02T09:25:46;8.30;99.90
19397;DHT22;9834;48.076;11.878;2024-03-02T09:28:19;8.40;99.90
19397;DHT22;9834;48.076;11.878;2024-03-02T09:30:50;8.50;99.90
19397;DHT22;9834;48.076;11.878;2024-03-02T09:33:20;8.60;99.90
19397;DHT22;9834;48.076;11.878;2024-03-02T09:35:47;8.80;99.90
19397;DHT22;9834;48.076;11.878;2024-03-02T09:38:26;8.90;99.90
19397;DHT22;9834;48.076;11.878;2024-03-02T09:40:53;9.00;99.90
19397;DHT22;9834;48.076;11.878;2024-03-02T09:43:24;9.10;99.90
19397;DHT22;9834;48.076;11.878;2024-03-02T09:45:51;9.20;99.90
19397;DHT22;9834;48.076;11.878;2024-03-02T09:48:23;9.50;99.90
19397;DHT22;9834;48.076;11.878;2024-03-02T09:50:50;9.80;99.90
19397;DHT22;9834;48.076;11.878;2024-03-02T09:53:21;10.20;99.90
19397;DHT22;9834;48.076;11.878;2024-03-02T09:55:49;10.60;99.90
19397;DHT22;9834;48.076;11.878;2024-03-02T09:58:16;10.90;99.90
19397;DHT22;9834;48.076;11.878;2024-03-02T10:00:44;10.90;99.90
19397;DHT22;9834;48.076;11.878;2024-03-02T10:03:12;10.90;99.90
19397;DHT22;9834;48.076;11.878;2024-03-02T10:05:41;10.90;99.90
19397;DHT22;9834;48.076;11.878;2024-03-02T10:08:09;11.10;99.90
19397;DHT22;9834;48.076;11.878;2024-03-02T10:10:39;11.30;99.90
19397;DHT22;9834;48.076;11.878;2024-03-02T10:13:09;11.50;99.90
19397;DHT22;9834;48.076;11.878;2024-03-02T10:15:40;11.30;99.90
19397;DHT22;9834;48.076;11.878;2024-03-02T10:18:12;11.10;99.90
19397;DHT22;9834;48.076;11.878;2024-03-02T10:20:41;10.90;99.90
19397;DHT22;9834;48.076;11.878;2024-03-02T10:23:12;10.70;99.90
19397;DHT22;9834;48.076;11.878;2024-03-02T10:25:41;10.60;99.90
19397;DHT22;9834;48.076;11.878;2024-03-02T10:28:10;10.60;99.90
19397;DHT22;9834;48.076;11.878;2024-03-02T10:30:41;10.50;99.90
19397;DHT22;9834;48.076;11.878;2024-03-02T10:33:11;10.50;99.90
19397;DHT22;9834;48.076;11.878;2024-03-02T10:35:41;10.50;99.90
19397;DHT22;9834;48.076;11.878;2024-03-02T10:38:11;10.60;99.90
19397;DHT22;9834;48.076;11.878;2024-03-02T10:40:47;10.70;99.90
19397;DHT22;9834;48.076;11.878;2024-03-02T10:43:22;10.80;99.90
19397;DHT22;9834;48.076;11.878;2024-03-02T10:45:53;11.10;99.90
19397;DHT22;9834;48.076;11.878;2024-03-02T10:48:21;11.30;99.90
19397;DHT22;9834;48.076;11.878;2024-03-02T10:50:54;11.50;99.90
19397;DHT22;9834;48.076;11.878;2024-03-02T10:53:27;11.60;99.90
19397;DHT22;9834;48.076;11.878;2024-03-02T10:55:58;11.60;99.90
19397;DHT22;9834;48.076;11.878;2024-03-02T10:58:32;11.60;99.90
19397;DHT22;9834;48.076;11.878;2024-03-02T11:01:13;11.50;99.90
19397;DHT22;9834;48.076;11.878;2024-03-02T11:03:41;11.60;99.90
19397;DHT22;9834;48.076;11.878;2024-03-02T11:06:12;11.80;99.90
19397;DHT22;9834;48.076;11.878;2024-03-02T11:08:45;12.00;99.90
19397;DHT22;9834;48.076;11.878;2024-03-02T11:11:16;12.20;99.90
19397;DHT22;9834;48.076;11.878;2024-03-02T11:13:49;12.70;99.90
19397;DHT22;9834;48.076;11.878;2024-03-02T11:16:34;13.10;99.90
19397;DHT22;9834;48.076;11.878;2024-03-02T11:19:03;13.40;99.90
19397;DHT22;9834;48.076;11.878;2024-03-02T11:21:34;13.60;99.90
19397;DHT22;9834;48.076;11.878;2024-03-02T11:24:29;13.70;99.90
19397;DHT22;9834;48.076;11.878;2024-03-02T11:26:59;13.80;99.90
19397;DHT22;9834;48.076;11.878;2024-03-02T11:29:53;13.90;98.80
19397;DHT22;9834;48.076;11.878;2024-03-02T11:32:29;14.00;99.70
19397;DHT22;9834;48.076;11.878;2024-03-02T11:34:59;14.20;96.80
19397;DHT22;9834;48.076;11.878;2024-03-02T11:37:34;14.20;95.50
19397;DHT22;9834;48.076;11.878;2024-03-02T11:40:02;13.90;95.50
19397;DHT22;9834;48.076;11.878;2024-03-02T11:42:30;13.80;93.80
19397;DHT22;9834;48.076;11.878;2024-03-02T11:44:59;13.70;95.40
19397;DHT22;9834;48.076;11.878;2024-03-02T11:47:32;13.80;95.10
19397;DHT22;9834;48.076;11.878;2024-03-02T11:50:04;14.10;93.90
19397;DHT22;9834;48.076;11.878;2024-03-02T11:52:46;14.60;94.10
19397;DHT22;9834;48.076;11.878;2024-03-02T11:55:18;15.50;90.50
19397;DHT22;9834;48.076;11.878;2024-03-02T11:57:47;16.00;83.30
19397;DHT22;9834;48.076;11.878;2024-03-02T12:00:17;16.40;80.90
19397;DHT22;9834;48.076;11.878;2024-03-02T12:02:46;17.40;78.00
19397;DHT22;9834;48.076;11.878;2024-03-02T12:05:18;18.70;76.10
19397;DHT22;9834;48.076;11.878;2024-03-02T12:07:56;19.90;67.10
19397;DHT22;9834;48.076;11.878;2024-03-02T12:10:23;20.50;67.20
19397;DHT22;9834;48.076;11.878;2024-03-02T12:12:57;20.80;62.00
19397;DHT22;9834;48.076;11.878;2024-03-02T12:15:26;20.20;58.40
19397;DHT22;9834;48.076;11.878;2024-03-02T12:17:55;20.30;59.30
19397;DHT22;9834;48.076;11.878;2024-03-02T12:20:27;20.40;58.10
19397;DHT22;9834;48.076;11.878;2024-03-02T12:22:58;21.00;55.90
19397;DHT22;9834;48.076;11.878;2024-03-02T12:25:27;21.20;54.40
19397;DHT22;9834;48.076;11.878;2024-03-02T12:27:56;22.00;55.10
19397;DHT22;9834;48.076;11.878;2024-03-02T12:30:24;22.20;52.70
19397;DHT22;9834;48.076;11.878;2024-03-02T12:32:51;22.90;51.30
19397;DHT22;9834;48.076;11.878;2024-03-02T12:35:23;22.40;52.00
19397;DHT22;9834;48.076;11.878;2024-03-02T12:37:56;20.90;52.80
19397;DHT22;9834;48.076;11.878;2024-03-02T12:40:24;20.70;54.20
19397;DHT22;9834;48.076;11.878;2024-03-02T12:42:53;20.80;54.30
19397;DHT22;9834;48.076;11.878;2024-03-02T12:45:20;21.60;54.90
19397;DHT22;9834;48.076;11.878;2024-03-02T12:47:51;22.30;53.00
19397;DHT22;9834;48.076;11.878;2024-03-02T12:50:35;22.90;52.00
19397;DHT22;9834;48.076;11.878;2024-03-02T12:53:04;23.00;50.70
19397;DHT22;9834;48.076;11.878;2024-03-02T12:55:36;22.90;51.50
19397;DHT22;9834;48.076;11.878;2024-03-02T12:58:05;23.30;50.50
19397;DHT22;9834;48.076;11.878;2024-03-02T13:00:33;23.70;50.50
19397;DHT22;9834;48.076;11.878;2024-03-02T13:03:01;23.40;48.60
19397;DHT22;9834;48.076;11.878;2024-03-02T13:05:32;23.80;48.30
19397;DHT22;9834;48.076;11.878;2024-03-02T13:08:07;23.70;48.80
19397;DHT22;9834;48.076;11.878;2024-03-02T13:10:35;23.50;49.50
19397;DHT22;9834;48.076;11.878;2024-03-02T13:13:05;23.40;48.50
19397;DHT22;9834;48.076;11.878;2024-03-02T13:15:36;22.90;48.00
19397;DHT22;9834;48.076;11.878;2024-03-02T13:18:12;21.60;50.10
19397;DHT22;9834;48.076;11.878;2024-03-02T13:20:41;21.30;49.70
19397;DHT22;9834;48.076;11.878;2024-03-02T13:23:10;22.10;49.20
19397;DHT22;9834;48.076;11.878;2024-03-02T13:25:38;21.50;48.90
19397;DHT22;9834;48.076;11.878;2024-03-02T13:28:06;22.60;49.40
19397;DHT22;9834;48.076;11.878;2024-03-02T13:30:37;23.20;48.60
19397;DHT22;9834;48.076;11.878;2024-03-02T13:33:10;23.40;46.70
19397;DHT22;9834;48.076;11.878;2024-03-02T13:35:51;24.30;46.30
19397;DHT22;9834;48.076;11.878;2024-03-02T13:38:23;23.10;47.60
19397;DHT22;9834;48.076;11.878;2024-03-02T13:40:50;23.60;47.60
19397;DHT22;9834;48.076;11.878;2024-03-02T13:43:20;23.80;46.90
19397;DHT22;9834;48.076;11.878;2024-03-02T13:45:51;23.50;46.60
19397;DHT22;9834;48.076;11.878;2024-03-02T13:48:19;23.60;48.00
19397;DHT22;9834;48.076;11.878;2024-03-02T13:50:49;23.90;45.80
19397;DHT22;9834;48.076;11.878;2024-03-02T13:53:17;23.80;46.30
19397;DHT22;9834;48.076;11.878;2024-03-02T13:55:54;23.80;46.50
19397;DHT22;9834;48.076;11.878;2024-03-02T13:58:21;24.60;46.00
19397;DHT22;9834;48.076;11.878;2024-03-02T14:00:49;24.70;46.00
19397;DHT22;9834;48.076;11.878;2024-03-02T14:03:19;25.10;44.80
19397;DHT22;9834;48.076;11.878;2024-03-02T14:05:50;25.70;43.80
19397;DHT22;9834;48.076;11.878;2024-03-02T14:08:18;24.70;43.70
19397;DHT22;9834;48.076;11.878;2024-03-02T14:10:46;25.00;45.00
19397;DHT22;9834;48.076;11.878;2024-03-02T14:13:15;26.10;43.20
19397;DHT22;9834;48.076;11.878;2024-03-02T14:15:42;27.20;42.70
19397;DHT22;9834;48.076;11.878;2024-03-02T14:18:13;27.00;41.70
19397;DHT22;9834;48.076;11.878;2024-03-02T14:20:42;27.70;41.60
19397;DHT22;9834;48.076;11.878;2024-03-02T14:23:09;28.20;40.00
19397;DHT22;9834;48.076;11.878;2024-03-02T14:25:40;27.10;39.70
19397;DHT22;9834;48.076;11.878;2024-03-02T14:28:07;27.00;41.10
19397;DHT22;9834;48.076;11.878;2024-03-02T14:30:40;27.20;42.00
19397;DHT22;9834;48.076;11.878;2024-03-02T14:33:09;27.60;40.90
19397;DHT22;9834;48.076;11.878;2024-03-02T14:35:39;27.80;39.80
19397;DHT22;9834;48.076;11.878;2024-03-02T14:38:15;27.70;40.20
19397;DHT22;9834;48.076;11.878;2024-03-02T14:40:43;27.70;39.90
19397;DHT22;9834;48.076;11.878;2024-03-02T14:43:10;27.90;40.40
19397;DHT22;9834;48.076;11.878;2024-03-02T14:45:44;27.50;39.00
19397;DHT22;9834;48.076;11.878;2024-03-02T14:48:12;26.90;39.80
19397;DHT22;9834;48.076;11.878;2024-03-02T14:50:39;26.10;42.00
19397;DHT22;9834;48.076;11.878;2024-03-02T14:53:14;25.60;42.70
19397;DHT22;9834;48.076;11.878;2024-03-02T14:55:49;25.00;42.80
19397;DHT22;9834;48.076;11.878;2024-03-02T14:58:16;25.20;42.90
19397;DHT22;9834;48.076;11.878;2024-03-02T15:00:59;25.40;43.70
19397;DHT22;9834;48.076;11.878;2024-03-02T15:03:27;26.10;42.10
19397;DHT22;9834;48.076;11.878;2024-03-02T15:05:57;26.00;41.60
19397;DHT22;9834;48.076;11.878;2024-03-02T15:08:24;25.20;43.20
19397;DHT22;9834;48.076;11.878;2024-03-02T15:10:52;25.00;43.10
19397;DHT22;9834;48.076;11.878;2024-03-02T15:13:21;24.10;44.50
19397;DHT22;9834;48.076;11.878;2024-03-02T15:15:49;22.10;46.60
19397;DHT22;9834;48.076;11.878;2024-03-02T15:18:20;22.00;47.70
19397;DHT22;9834;48.076;11.878;2024-03-02T15:20:52;22.10;48.10
19397;DHT22;9834;48.076;11.878;2024-03-02T15:23:23;22.60;47.80
19397;DHT22;9834;48.076;11.878;2024-03-02T15:25:54;22.40;47.40
19397;DHT22;9834;48.076;11.878;2024-03-02T15:28:24;22.00;47.60
19397;DHT22;9834;48.076;11.878;2024-03-02T15:31:01;22.00;48.40
19397;DHT22;9834;48.076;11.878;2024-03-02T15:33:31;22.30;48.00
19397;DHT22;9834;48.076;11.878;2024-03-02T15:35:59;22.60;48.20
19397;DHT22;9834;48.076;11.878;2024-03-02T15:38:27;22.30;48.00
19397;DHT22;9834;48.076;11.878;2024-03-02T15:40:54;22.60;47.40
19397;DHT22;9834;48.076;11.878;2024-03-02T15:43:21;22.70;47.20
19397;DHT22;9834;48.076;11.878;2024-03-02T15:45:50;22.50;47.40
19397;DHT22;9834;48.076;11.878;2024-03-02T15:48:19;21.70;48.50
19397;DHT22;9834;48.076;11.878;2024-03-02T15:50:54;20.40;50.70
19397;DHT22;9834;48.076;11.878;2024-03-02T15:53:21;18.90;53.20
19397;DHT22;9834;48.076;11.878;2024-03-02T15:55:48;17.60;56.10
19397;DHT22;9834;48.076;11.878;2024-03-02T15:58:19;16.60;59.00
19397;DHT22;9834;48.076;11.878;2024-03-02T16:00:47;15.70;61.50
19397;DHT22;9834;48.076;11.878;2024-03-02T16:03:14;15.00;64.10
19397;DHT22;9834;48.076;11.878;2024-03-02T16:05:41;14.40;66.70
19397;DHT22;9834;48.076;11.878;2024-03-02T16:08:10;13.90;68.60
19397;DHT22;9834;48.076;11.878;2024-03-02T16:10:40;13.70;71.90
19397;DHT22;9834;48.076;11.878;2024-03-02T16:13:10;13.30;74.20
19397;DHT22;9834;48.076;11.878;2024-03-02T16:15:38;13.00;76.80
19397;DHT22;9834;48.076;11.878;2024-03-02T16:18:05;12.90;79.10
19397;DHT22;9834;48.076;11.878;2024-03-02T16:20:36;12.70;82.10
19397;DHT22;9834;48.076;11.878;2024-03-02T16:23:06;12.40;86.10
19397;DHT22;9834;48.076;11.878;2024-03-02T16:25:35;12.20;90.60
19397;DHT22;9834;48.076;11.878;2024-03-02T16:28:03;11.90;93.00
19397;DHT22;9834;48.076;11.878;2024-03-02T16:30:33;11.70;96.10
19397;DHT22;9834;48.076;11.878;2024-03-02T16:33:01;11.60;98.80
19397;DHT22;9834;48.076;11.878;2024-03-02T16:35:28;11.40;99.90
19397;DHT22;9834;48.076;11.878;2024-03-02T16:37:58;11.20;99.90
19397;DHT22;9834;48.076;11.878;2024-03-02T16:40:26;11.00;99.90
19397;DHT22;9834;48.076;11.878;2024-03-02T16:42:59;10.90;99.90
19397;DHT22;9834;48.076;11.878;2024-03-02T16:45:31;10.70;99.90
19397;DHT22;9834;48.076;11.878;2024-03-02T16:48:00;10.50;99.90
19397;DHT22;9834;48.076;11.878;2024-03-02T16:50:34;10.30;99.90
19397;DHT22;9834;48.076;11.878;2024-03-02T16:53:01;10.20;99.90
19397;DHT22;9834;48.076;11.878;2024-03-02T16:55:48;10.10;99.90
19397;DHT22;9834;48.076;11.878;2024-03-02T16:58:17;10.00;99.90
19397;DHT22;9834;48.076;11.878;2024-03-02T17:00:48;9.90;99.90
19397;DHT22;9834;48.076;11.878;2024-03-02T17:03:16;9.80;99.90
19397;DHT22;9834;48.076;11.878;2024-03-02T17:05:44;9.70;99.90
19397;DHT22;9834;48.076;11.878;2024-03-02T17:08:12;9.60;99.90
19397;DHT22;9834;48.076;11.878;2024-03-02T17:10:44;9.60;99.90
19397;DHT22;9834;48.076;11.878;2024-03-02T17:13:18;9.50;99.90
19397;DHT22;9834;48.076;11.878;2024-03-02T17:15:45;9.40;99.90
19397;DHT22;9834;48.076;11.878;2024-03-02T17:18:13;9.40;99.90
19397;DHT22;9834;48.076;11.878;2024-03-02T17:20:43;9.30;99.90
19397;DHT22;9834;48.076;11.878;2024-03-02T17:23:15;9.10;99.90
19397;DHT22;9834;48.076;11.878;2024-03-02T17:25:44;9.10;99.90
19397;DHT22;9834;48.076;11.878;2024-03-02T17:28:23;9.00;99.90
19397;DHT22;9834;48.076;11.878;2024-03-02T17:30:51;8.90;99.90
19397;DHT22;9834;48.076;11.878;2024-03-02T17:33:19;8.90;99.90
19397;DHT22;9834;48.076;11.878;2024-03-02T17:35:47;8.80;99.90
19397;DHT22;9834;48.076;11.878;2024-03-02T17:38:16;8.80;99.90
19397;DHT22;9834;48.076;11.878;2024-03-02T17:40:43;8.80;99.90
19397;DHT22;9834;48.076;11.878;2024-03-02T17:43:18;8.70;99.90
19397;DHT22;9834;48.076;11.878;2024-03-02T17:45:47;8.60;99.90
19397;DHT22;9834;48.076;11.878;2024-03-02T17:48:17;8.50;99.90
19397;DHT22;9834;48.076;11.878;2024-03-02T17:50:47;8.50;99.90
19397;DHT22;9834;48.076;11.878;2024-03-02T17:53:17;8.40;99.90
19397;DHT22;9834;48.076;11.878;2024-03-02T17:55:45;8.30;99.90
19397;DHT22;9834;48.076;11.878;2024-03-02T17:58:24;8.30;99.90
19397;DHT22;9834;48.076;11.878;2024-03-02T18:00:53;8.30;99.90
19397;DHT22;9834;48.076;11.878;2024-03-02T18:03:23;8.20;99.90
19397;DHT22;9834;48.076;11.878;2024-03-02T18:05:51;8.20;99.90
19397;DHT22;9834;48.076;11.878;2024-03-02T18:08:22;8.20;99.90
19397;DHT22;9834;48.076;11.878;2024-03-02T18:10:52;8.20;99.90
19397;DHT22;9834;48.076;11.878;2024-03-02T18:13:22;8.10;99.90
19397;DHT22;9834;48.076;11.878;2024-03-02T18:16:01;8.10;99.90
19397;DHT22;9834;48.076;11.878;2024-03-02T18:18:35;8.10;99.90
19397;DHT22;9834;48.076;11.878;2024-03-02T18:21:04;8.10;99.90
19397;DHT22;9834;48.076;11.878;2024-03-02T18:23:34;8.00;99.90
19397;DHT22;9834;48.076;11.878;2024-03-02T18:26:08;8.00;99.90
19397;DHT22;9834;48.076;11.878;2024-03-02T18:28:35;7.90;99.90
19397;DHT22;9834;48.076;11.878;2024-03-02T18:31:13;7.80;99.90
19397;DHT22;9834;48.076;11.878;2024-03-02T18:33:48;7.70;99.90
19397;DHT22;9834;48.076;11.878;2024-03-02T18:36:16;7.70;99.90
19397;DHT22;9834;48.076;11.878;2024-03-02T18:38:43;7.70;99.90
19397;DHT22;9834;48.076;11.878;2024-03-02T18:41:11;7.70;99.90
19397;DHT22;9834;48.076;11.878;2024-03-02T18:43:41;7.60;99.90
19397;DHT22;9834;48.076;11.878;2024-03-02T18:46:14;7.60;99.90
19397;DHT22;9834;48.076;11.878;2024-03-02T18:48:50;7.60;99.90
19397;DHT22;9834;48.076;11.878;2024-03-02T18:51:20;7.50;99.90
19397;DHT22;9834;48.076;11.878;2024-03-02T18:53:51;7.50;99.90
19397;DHT22;9834;48.076;11.878;2024-03-02T18:56:19;7.50;99.90
19397;DHT22;9834;48.076;11.878;2024-03-02T18:58:49;7.40;99.90
19397;DHT22;9834;48.076;11.878;2024-03-02T19:01:21;7.30;99.90
19397;DHT22;9834;48.076;11.878;2024-03-02T19:03:50;7.30;99.90
19397;DHT22;9834;48.076;11.878;2024-03-02T19:06:21;7.20;99.90
19397;DHT22;9834;48.076;11.878;2024-03-02T19:08:48;7.20;99.90
19397;DHT22;9834;48.076;11.878;2024-03-02T19:11:16;7.20;99.90
19397;DHT22;9834;48.076;11.878;2024-03-02T19:13:44;7.10;99.90
19397;DHT22;9834;48.076;11.878;2024-03-02T19:16:13;7.00;99.90
19397;DHT22;9834;48.076;11.878;2024-03-02T19:18:42;7.00;99.90
19397;DHT22;9834;48.076;11.878;2024-03-02T19:21:10;6.90;99.90
19397;DHT22;9834;48.076;11.878;2024-03-02T19:23:38;6.90;99.90
19397;DHT22;9834;48.076;11.878;2024-03-02T19:26:05;6.90;99.90
19397;DHT22;9834;48.076;11.878;2024-03-02T19:28:33;6.80;99.90
19397;DHT22;9834;48.076;11.878;2024-03-02T19:31:03;6.80;99.90
19397;DHT22;9834;48.076;11.878;2024-03-02T19:33:31;6.80;99.90
19397;DHT22;9834;48.076;11.878;2024-03-02T19:36:00;6.70;99.90
19397;DHT22;9834;48.076;11.878;2024-03-02T19:38:32;6.70;99.90
19397;DHT22;9834;48.076;11.878;2024-03-02T19:41:02;6.60;99.90
19397;DHT22;9834;48.076;11.878;2024-03-02T19:43:38;6.60;99.90
19397;DHT22;9834;48.076;11.878;2024-03-02T19:46:10;6.50;99.90
19397;DHT22;9834;48.076;11.878;2024-03-02T19:48:38;6.50;99.90
19397;DHT22;9834;48.076;11.878;2024-03-02T19:51:07;6.50;99.90
19397;DHT22;9834;48.076;11.878;2024-03-02T19:53:39;6.40;99.90
19397;DHT22;9834;48.076;11.878;2024-03-02T19:56:16;6.40;99.90
19397;DHT22;9834;48.076;11.878;2024-03-02T19:58:44;6.40;99.90
19397;DHT22;9834;48.076;11.878;2024-03-02T20:01:11;6.40;99.90
19397;DHT22;9834;48.076;11.878;2024-03-02T20:03:42;6.30;99.90